Strona główna
METAR-TAF:

METAR-TAF

Lotnisko :

General Mitchell International Airport

Milwaukee, Wisconsin, Stany Zjednoczone

Szerokość geograficzna: 42-57-18N, Długość geograficzna: 087-54-16W, wysokość: 220 m

Aktualna obserwacja pogody

Raport powstał 58 minut temu, godzina 21:52 UTC
Wiatr 9 kt od zachód
Temperatura -7°C
Wilgotność 45%
Ciśnienie 1022 hPa
Widzialność: 16.1 km
Mało chmury na wysokości 3000 ft

METAR: KMKE 102152Z 26009KT 10SM FEW030 M07/M17 A3018 RMK AO2 SLP232 T10671172

czas: 16:50 (22:50 UTC)

Prognoza

Raport powstał 2 godziny i 22 minut temu, godzina 20:28 UTC
Prognoza ważna od 10 godzina 20 UTC do 11 godzina 24 UTC
Wiatr 10 kt od zachód w porywach dochodzący do 16 kt
Widzialność: 10 km
bezchmurnie
Od 10 godzina 2300 UTC
Wiatr 10 kt od zachód
Widzialność: 10 km
bezchmurnie
Od 11 godzina 1700 UTC
Wiatr 12 kt od zachodnio-północny zachód
Widzialność: 10 km
Rozproszone chmury na wysokości 15000 ft

TAF: KMKE 102028Z 1020/1124 26010G16KT P6SM SKC FM102300 27010KT P6SM SKC FM111700 29012KT P6SM SCT150

Obserwacja i prognoza pogody dla ponad 4000 lotnisk (raport METAR i TAF).

Dostępne stacje oznaczono żółtymi i czerwonymi punktami na mapie.

Najedź kursorem aby zobaczyć nazwę stacji.

Kliknij aby zobaczyć obserwacje i prognozy pogody.

Aby zmienić mapę: kliknij na zielony przycisk z czarnym krzyżykiem, aby powiększyć; na zielony przycisk z myślnikiem, aby pomniejszyć; na zielone strzałki, aby przejść do map sąsiednich.


METAR-TAF: